sensor_id;sensor_type;location;lat;lon;timestamp;P1;durP1;ratioP1;P2;durP2;ratioP2
2474;SDS011;1248;48.694;10.160;2023-04-15T00:02:18;8.17;;;5.87;;
2474;SDS011;1248;48.694;10.160;2023-04-15T00:04:45;8.93;;;5.40;;
2474;SDS011;1248;48.694;10.160;2023-04-15T00:07:12;9.80;;;5.80;;
2474;SDS011;1248;48.694;10.160;2023-04-15T00:09:39;12.67;;;6.20;;
2474;SDS011;1248;48.694;10.160;2023-04-15T00:12:07;13.23;;;5.20;;
2474;SDS011;1248;48.694;10.160;2023-04-15T00:14:34;8.83;;;6.80;;
2474;SDS011;1248;48.694;10.160;2023-04-15T00:17:01;13.87;;;6.23;;
2474;SDS011;1248;48.694;10.160;2023-04-15T00:19:30;13.57;;;7.47;;
2474;SDS011;1248;48.694;10.160;2023-04-15T00:21:58;9.13;;;6.30;;
2474;SDS011;1248;48.694;10.160;2023-04-15T00:24:25;13.30;;;5.97;;
2474;SDS011;1248;48.694;10.160;2023-04-15T00:26:52;8.97;;;6.00;;
2474;SDS011;1248;48.694;10.160;2023-04-15T00:29:19;7.20;;;5.30;;
2474;SDS011;1248;48.694;10.160;2023-04-15T00:31:46;6.20;;;5.60;;
2474;SDS011;1248;48.694;10.160;2023-04-15T00:34:13;9.73;;;5.20;;
2474;SDS011;1248;48.694;10.160;2023-04-15T00:36:42;16.57;;;5.60;;
2474;SDS011;1248;48.694;10.160;2023-04-15T00:39:09;7.73;;;5.50;;
2474;SDS011;1248;48.694;10.160;2023-04-15T00:41:36;7.53;;;5.60;;
2474;SDS011;1248;48.694;10.160;2023-04-15T00:44:04;8.30;;;5.97;;
2474;SDS011;1248;48.694;10.160;2023-04-15T00:46:32;5.90;;;5.30;;
2474;SDS011;1248;48.694;10.160;2023-04-15T00:49:01;9.00;;;5.53;;
2474;SDS011;1248;48.694;10.160;2023-04-15T00:51:29;9.10;;;5.47;;
2474;SDS011;1248;48.694;10.160;2023-04-15T00:53:59;10.90;;;6.50;;
2474;SDS011;1248;48.694;10.160;2023-04-15T00:56:26;10.20;;;7.00;;
2474;SDS011;1248;48.694;10.160;2023-04-15T00:58:54;11.30;;;6.50;;
2474;SDS011;1248;48.694;10.160;2023-04-15T01:01:22;7.30;;;5.40;;
2474;SDS011;1248;48.694;10.160;2023-04-15T01:03:51;11.70;;;5.87;;
2474;SDS011;1248;48.694;10.160;2023-04-15T01:06:18;9.57;;;5.20;;
2474;SDS011;1248;48.694;10.160;2023-04-15T01:08:46;11.00;;;6.30;;
2474;SDS011;1248;48.694;10.160;2023-04-15T01:11:14;18.43;;;6.03;;
2474;SDS011;1248;48.694;10.160;2023-04-15T01:13:41;6.97;;;4.93;;
2474;SDS011;1248;48.694;10.160;2023-04-15T01:16:08;5.83;;;4.70;;
2474;SDS011;1248;48.694;10.160;2023-04-15T01:18:36;6.10;;;5.50;;
2474;SDS011;1248;48.694;10.160;2023-04-15T01:21:04;6.93;;;4.80;;
2474;SDS011;1248;48.694;10.160;2023-04-15T01:23:32;6.23;;;5.10;;
2474;SDS011;1248;48.694;10.160;2023-04-15T01:26:02;11.17;;;5.60;;
2474;SDS011;1248;48.694;10.160;2023-04-15T01:28:30;6.77;;;5.73;;
2474;SDS011;1248;48.694;10.160;2023-04-15T01:33:42;6.03;;;5.43;;
2474;SDS011;1248;48.694;10.160;2023-04-15T01:36:09;6.43;;;5.77;;
2474;SDS011;1248;48.694;10.160;2023-04-15T01:38:36;8.47;;;5.90;;
2474;SDS011;1248;48.694;10.160;2023-04-15T01:41:05;6.57;;;5.40;;
2474;SDS011;1248;48.694;10.160;2023-04-15T01:43:33;7.77;;;5.70;;
2474;SDS011;1248;48.694;10.160;2023-04-15T01:46:00;28.43;;;12.90;;
2474;SDS011;1248;48.694;10.160;2023-04-15T01:48:27;11.00;;;8.00;;
2474;SDS011;1248;48.694;10.160;2023-04-15T01:50:54;24.50;;;12.00;;
2474;SDS011;1248;48.694;10.160;2023-04-15T01:53:23;30.00;;;13.20;;
2474;SDS011;1248;48.694;10.160;2023-04-15T01:55:50;14.10;;;8.83;;
2474;SDS011;1248;48.694;10.160;2023-04-15T01:58:18;21.07;;;8.07;;
2474;SDS011;1248;48.694;10.160;2023-04-15T02:00:46;12.50;;;6.10;;
2474;SDS011;1248;48.694;10.160;2023-04-15T02:03:13;9.00;;;6.20;;
2474;SDS011;1248;48.694;10.160;2023-04-15T02:05:40;15.47;;;7.43;;
2474;SDS011;1248;48.694;10.160;2023-04-15T02:08:08;14.10;;;5.80;;
2474;SDS011;1248;48.694;10.160;2023-04-15T02:10:35;12.80;;;5.33;;
2474;SDS011;1248;48.694;10.160;2023-04-15T02:13:02;7.60;;;4.77;;
2474;SDS011;1248;48.694;10.160;2023-04-15T02:15:30;8.10;;;5.33;;
2474;SDS011;1248;48.694;10.160;2023-04-15T02:17:57;9.00;;;6.00;;
2474;SDS011;1248;48.694;10.160;2023-04-15T02:20:25;7.80;;;5.17;;
2474;SDS011;1248;48.694;10.160;2023-04-15T02:22:52;7.83;;;5.13;;
2474;SDS011;1248;48.694;10.160;2023-04-15T02:25:19;6.30;;;5.37;;
2474;SDS011;1248;48.694;10.160;2023-04-15T02:27:46;13.20;;;6.33;;
2474;SDS011;1248;48.694;10.160;2023-04-15T02:30:13;6.40;;;5.07;;
2474;SDS011;1248;48.694;10.160;2023-04-15T02:32:42;10.90;;;5.70;;
2474;SDS011;1248;48.694;10.160;2023-04-15T02:35:09;6.90;;;5.00;;
2474;SDS011;1248;48.694;10.160;2023-04-15T02:37:37;10.73;;;6.10;;
2474;SDS011;1248;48.694;10.160;2023-04-15T02:40:08;10.97;;;6.10;;
2474;SDS011;1248;48.694;10.160;2023-04-15T02:42:37;10.53;;;6.63;;
2474;SDS011;1248;48.694;10.160;2023-04-15T02:45:04;6.70;;;4.97;;
2474;SDS011;1248;48.694;10.160;2023-04-15T02:47:32;8.07;;;5.17;;
2474;SDS011;1248;48.694;10.160;2023-04-15T02:50:02;9.53;;;5.23;;
2474;SDS011;1248;48.694;10.160;2023-04-15T02:52:29;10.37;;;6.90;;
2474;SDS011;1248;48.694;10.160;2023-04-15T02:54:56;14.50;;;7.00;;
2474;SDS011;1248;48.694;10.160;2023-04-15T02:57:25;12.90;;;7.80;;
2474;SDS011;1248;48.694;10.160;2023-04-15T02:59:53;13.27;;;7.20;;
2474;SDS011;1248;48.694;10.160;2023-04-15T03:02:20;10.57;;;7.03;;
2474;SDS011;1248;48.694;10.160;2023-04-15T03:04:47;12.53;;;7.30;;
2474;SDS011;1248;48.694;10.160;2023-04-15T03:07:16;15.33;;;6.50;;
2474;SDS011;1248;48.694;10.160;2023-04-15T03:09:43;10.23;;;6.80;;
2474;SDS011;1248;48.694;10.160;2023-04-15T03:12:10;11.83;;;5.77;;
2474;SDS011;1248;48.694;10.160;2023-04-15T03:14:37;9.40;;;4.40;;
2474;SDS011;1248;48.694;10.160;2023-04-15T03:17:04;5.40;;;4.60;;
2474;SDS011;1248;48.694;10.160;2023-04-15T03:19:31;7.03;;;4.20;;
2474;SDS011;1248;48.694;10.160;2023-04-15T03:21:58;6.60;;;4.67;;
2474;SDS011;1248;48.694;10.160;2023-04-15T03:24:27;5.90;;;4.40;;
2474;SDS011;1248;48.694;10.160;2023-04-15T03:26:54;8.00;;;5.47;;
2474;SDS011;1248;48.694;10.160;2023-04-15T03:29:22;6.30;;;4.63;;
2474;SDS011;1248;48.694;10.160;2023-04-15T03:31:49;10.70;;;5.20;;
2474;SDS011;1248;48.694;10.160;2023-04-15T03:34:16;9.07;;;4.80;;
2474;SDS011;1248;48.694;10.160;2023-04-15T03:36:43;5.83;;;4.23;;
2474;SDS011;1248;48.694;10.160;2023-04-15T03:39:10;5.47;;;4.97;;
2474;SDS011;1248;48.694;10.160;2023-04-15T03:41:39;7.80;;;5.33;;
2474;SDS011;1248;48.694;10.160;2023-04-15T03:44:06;11.67;;;5.50;;
2474;SDS011;1248;48.694;10.160;2023-04-15T03:46:33;9.10;;;5.33;;
2474;SDS011;1248;48.694;10.160;2023-04-15T03:49:00;16.13;;;5.70;;
2474;SDS011;1248;48.694;10.160;2023-04-15T03:51:27;15.17;;;5.80;;
2474;SDS011;1248;48.694;10.160;2023-04-15T03:53:54;10.43;;;5.10;;
2474;SDS011;1248;48.694;10.160;2023-04-15T03:56:21;7.30;;;5.10;;
2474;SDS011;1248;48.694;10.160;2023-04-15T03:58:49;6.97;;;5.83;;
2474;SDS011;1248;48.694;10.160;2023-04-15T04:01:17;13.33;;;5.77;;
2474;SDS011;1248;48.694;10.160;2023-04-15T04:03:44;11.07;;;5.23;;
2474;SDS011;1248;48.694;10.160;2023-04-15T04:06:11;9.80;;;5.33;;
2474;SDS011;1248;48.694;10.160;2023-04-15T04:08:38;8.20;;;6.00;;
2474;SDS011;1248;48.694;10.160;2023-04-15T04:11:05;10.93;;;5.73;;
2474;SDS011;1248;48.694;10.160;2023-04-15T04:13:32;11.33;;;6.23;;
2474;SDS011;1248;48.694;10.160;2023-04-15T04:16:00;9.50;;;6.47;;
2474;SDS011;1248;48.694;10.160;2023-04-15T04:18:29;13.50;;;5.73;;
2474;SDS011;1248;48.694;10.160;2023-04-15T04:20:56;10.73;;;5.80;;
2474;SDS011;1248;48.694;10.160;2023-04-15T04:23:23;5.97;;;5.37;;
2474;SDS011;1248;48.694;10.160;2023-04-15T04:25:50;5.37;;;4.40;;
2474;SDS011;1248;48.694;10.160;2023-04-15T04:28:17;6.60;;;4.80;;
2474;SDS011;1248;48.694;10.160;2023-04-15T04:30:44;5.30;;;4.80;;
2474;SDS011;1248;48.694;10.160;2023-04-15T04:33:12;9.17;;;4.60;;
2474;SDS011;1248;48.694;10.160;2023-04-15T04:35:39;5.30;;;4.63;;
2474;SDS011;1248;48.694;10.160;2023-04-15T04:38:06;9.33;;;5.43;;
2474;SDS011;1248;48.694;10.160;2023-04-15T04:40:33;5.73;;;5.00;;
2474;SDS011;1248;48.694;10.160;2023-04-15T04:43:00;8.90;;;5.10;;
2474;SDS011;1248;48.694;10.160;2023-04-15T04:45:27;12.13;;;6.77;;
2474;SDS011;1248;48.694;10.160;2023-04-15T04:47:54;9.30;;;5.40;;
2474;SDS011;1248;48.694;10.160;2023-04-15T04:50:23;13.80;;;7.37;;
2474;SDS011;1248;48.694;10.160;2023-04-15T04:52:50;10.47;;;5.83;;
2474;SDS011;1248;48.694;10.160;2023-04-15T04:55:17;12.23;;;8.30;;
2474;SDS011;1248;48.694;10.160;2023-04-15T04:57:44;7.20;;;6.10;;
2474;SDS011;1248;48.694;10.160;2023-04-15T05:00:11;11.63;;;6.67;;
2474;SDS011;1248;48.694;10.160;2023-04-15T05:02:39;8.10;;;5.63;;
2474;SDS011;1248;48.694;10.160;2023-04-15T05:05:08;9.33;;;5.50;;
2474;SDS011;1248;48.694;10.160;2023-04-15T05:07:37;8.87;;;6.03;;
2474;SDS011;1248;48.694;10.160;2023-04-15T05:10:05;15.93;;;6.33;;
2474;SDS011;1248;48.694;10.160;2023-04-15T05:12:34;10.53;;;6.60;;
2474;SDS011;1248;48.694;10.160;2023-04-15T05:15:02;17.23;;;6.40;;
2474;SDS011;1248;48.694;10.160;2023-04-15T05:17:29;11.13;;;6.10;;
2474;SDS011;1248;48.694;10.160;2023-04-15T05:19:57;10.93;;;5.50;;
2474;SDS011;1248;48.694;10.160;2023-04-15T05:22:24;11.13;;;6.37;;
2474;SDS011;1248;48.694;10.160;2023-04-15T05:24:53;14.30;;;5.90;;
2474;SDS011;1248;48.694;10.160;2023-04-15T05:27:20;11.10;;;5.43;;
2474;SDS011;1248;48.694;10.160;2023-04-15T05:29:47;14.40;;;5.97;;
2474;SDS011;1248;48.694;10.160;2023-04-15T05:32:14;11.17;;;7.40;;
2474;SDS011;1248;48.694;10.160;2023-04-15T05:34:41;7.70;;;5.87;;
2474;SDS011;1248;48.694;10.160;2023-04-15T05:37:08;10.10;;;6.53;;
2474;SDS011;1248;48.694;10.160;2023-04-15T05:39:36;9.57;;;6.00;;
2474;SDS011;1248;48.694;10.160;2023-04-15T05:42:04;16.80;;;6.30;;
2474;SDS011;1248;48.694;10.160;2023-04-15T05:44:31;7.43;;;6.07;;
2474;SDS011;1248;48.694;10.160;2023-04-15T05:46:58;10.00;;;5.87;;
2474;SDS011;1248;48.694;10.160;2023-04-15T05:49:25;10.23;;;5.90;;
2474;SDS011;1248;48.694;10.160;2023-04-15T05:51:52;13.60;;;5.67;;
2474;SDS011;1248;48.694;10.160;2023-04-15T05:54:19;10.60;;;5.60;;
2474;SDS011;1248;48.694;10.160;2023-04-15T05:56:47;7.63;;;5.70;;
2474;SDS011;1248;48.694;10.160;2023-04-15T05:59:15;10.27;;;5.60;;
2474;SDS011;1248;48.694;10.160;2023-04-15T06:01:42;12.23;;;6.50;;
2474;SDS011;1248;48.694;10.160;2023-04-15T06:04:09;10.03;;;6.20;;
2474;SDS011;1248;48.694;10.160;2023-04-15T06:06:36;10.33;;;7.00;;
2474;SDS011;1248;48.694;10.160;2023-04-15T06:09:03;8.77;;;5.97;;
2474;SDS011;1248;48.694;10.160;2023-04-15T06:11:30;11.17;;;6.57;;
2474;SDS011;1248;48.694;10.160;2023-04-15T06:13:58;12.43;;;5.90;;
2474;SDS011;1248;48.694;10.160;2023-04-15T06:16:26;10.60;;;6.70;;
2474;SDS011;1248;48.694;10.160;2023-04-15T06:18:53;10.93;;;5.83;;
2474;SDS011;1248;48.694;10.160;2023-04-15T06:21:20;8.27;;;6.00;;
2474;SDS011;1248;48.694;10.160;2023-04-15T06:23:47;9.77;;;6.87;;
2474;SDS011;1248;48.694;10.160;2023-04-15T06:26:14;7.57;;;6.23;;
2474;SDS011;1248;48.694;10.160;2023-04-15T06:28:41;11.50;;;6.20;;
2474;SDS011;1248;48.694;10.160;2023-04-15T06:31:08;7.03;;;5.67;;
2474;SDS011;1248;48.694;10.160;2023-04-15T06:33:37;7.93;;;5.07;;
2474;SDS011;1248;48.694;10.160;2023-04-15T06:36:04;9.13;;;5.20;;
2474;SDS011;1248;48.694;10.160;2023-04-15T06:38:31;7.50;;;5.73;;
2474;SDS011;1248;48.694;10.160;2023-04-15T06:40:58;9.43;;;6.13;;
2474;SDS011;1248;48.694;10.160;2023-04-15T06:43:25;9.63;;;6.70;;
2474;SDS011;1248;48.694;10.160;2023-04-15T06:45:53;9.57;;;6.90;;
2474;SDS011;1248;48.694;10.160;2023-04-15T06:48:20;12.77;;;8.53;;
2474;SDS011;1248;48.694;10.160;2023-04-15T06:50:48;9.23;;;6.20;;
2474;SDS011;1248;48.694;10.160;2023-04-15T06:53:15;10.33;;;7.13;;
2474;SDS011;1248;48.694;10.160;2023-04-15T06:55:42;8.60;;;6.07;;
2474;SDS011;1248;48.694;10.160;2023-04-15T06:58:09;10.97;;;6.80;;
2474;SDS011;1248;48.694;10.160;2023-04-15T07:00:36;9.15;;;5.78;;
2474;SDS011;1248;48.694;10.160;2023-04-15T07:03:05;9.60;;;5.80;;
2474;SDS011;1248;48.694;10.160;2023-04-15T07:05:34;9.87;;;6.43;;
2474;SDS011;1248;48.694;10.160;2023-04-15T07:08:03;10.53;;;6.10;;
2474;SDS011;1248;48.694;10.160;2023-04-15T07:10:31;8.33;;;6.17;;
2474;SDS011;1248;48.694;10.160;2023-04-15T07:12:58;7.83;;;6.37;;
2474;SDS011;1248;48.694;10.160;2023-04-15T07:15:25;7.77;;;6.27;;
2474;SDS011;1248;48.694;10.160;2023-04-15T07:17:53;31.07;;;13.23;;
2474;SDS011;1248;48.694;10.160;2023-04-15T07:20:20;17.00;;;7.00;;
2474;SDS011;1248;48.694;10.160;2023-04-15T07:22:47;24.07;;;11.33;;
2474;SDS011;1248;48.694;10.160;2023-04-15T07:25:16;12.97;;;6.60;;
2474;SDS011;1248;48.694;10.160;2023-04-15T07:27:43;10.70;;;5.23;;
2474;SDS011;1248;48.694;10.160;2023-04-15T07:30:10;11.40;;;5.33;;
2474;SDS011;1248;48.694;10.160;2023-04-15T07:32:38;6.53;;;5.30;;
2474;SDS011;1248;48.694;10.160;2023-04-15T07:35:05;10.87;;;4.80;;
2474;SDS011;1248;48.694;10.160;2023-04-15T07:37:34;7.80;;;4.40;;
2474;SDS011;1248;48.694;10.160;2023-04-15T07:40:01;4.63;;;4.20;;
2474;SDS011;1248;48.694;10.160;2023-04-15T07:42:33;8.63;;;4.33;;
2474;SDS011;1248;48.694;10.160;2023-04-15T07:45:00;7.03;;;4.40;;
2474;SDS011;1248;48.694;10.160;2023-04-15T07:47:27;5.83;;;4.03;;
2474;SDS011;1248;48.694;10.160;2023-04-15T07:49:54;5.27;;;4.37;;
2474;SDS011;1248;48.694;10.160;2023-04-15T07:52:21;10.43;;;4.63;;
2474;SDS011;1248;48.694;10.160;2023-04-15T07:54:48;7.30;;;4.77;;
2474;SDS011;1248;48.694;10.160;2023-04-15T07:57:15;7.77;;;4.90;;
2474;SDS011;1248;48.694;10.160;2023-04-15T07:59:44;11.20;;;4.47;;
2474;SDS011;1248;48.694;10.160;2023-04-15T08:02:11;12.30;;;5.30;;
2474;SDS011;1248;48.694;10.160;2023-04-15T08:04:38;10.27;;;4.60;;
2474;SDS011;1248;48.694;10.160;2023-04-15T08:07:05;10.30;;;3.77;;
2474;SDS011;1248;48.694;10.160;2023-04-15T08:09:32;7.13;;;3.20;;
2474;SDS011;1248;48.694;10.160;2023-04-15T08:11:59;7.07;;;3.83;;
2474;SDS011;1248;48.694;10.160;2023-04-15T08:14:26;9.37;;;4.30;;
2474;SDS011;1248;48.694;10.160;2023-04-15T08:16:54;3.97;;;3.20;;
2474;SDS011;1248;48.694;10.160;2023-04-15T08:19:21;6.33;;;2.90;;
2474;SDS011;1248;48.694;10.160;2023-04-15T08:21:48;4.30;;;2.70;;
2474;SDS011;1248;48.694;10.160;2023-04-15T08:24:15;4.73;;;2.73;;
2474;SDS011;1248;48.694;10.160;2023-04-15T08:26:43;2.50;;;2.20;;
2474;SDS011;1248;48.694;10.160;2023-04-15T08:29:11;3.93;;;2.73;;
2474;SDS011;1248;48.694;10.160;2023-04-15T08:31:38;4.70;;;3.40;;
2474;SDS011;1248;48.694;10.160;2023-04-15T08:34:06;4.50;;;3.00;;
2474;SDS011;1248;48.694;10.160;2023-04-15T08:36:33;8.23;;;3.20;;
2474;SDS011;1248;48.694;10.160;2023-04-15T08:39:00;5.10;;;3.40;;
2474;SDS011;1248;48.694;10.160;2023-04-15T08:41:30;7.00;;;2.57;;
2474;SDS011;1248;48.694;10.160;2023-04-15T08:44:02;4.37;;;3.20;;
2474;SDS011;1248;48.694;10.160;2023-04-15T08:46:31;4.80;;;2.17;;
2474;SDS011;1248;48.694;10.160;2023-04-15T08:48:59;4.57;;;3.27;;
2474;SDS011;1248;48.694;10.160;2023-04-15T08:51:30;4.30;;;2.57;;
2474;SDS011;1248;48.694;10.160;2023-04-15T08:53:57;3.73;;;2.53;;
2474;SDS011;1248;48.694;10.160;2023-04-15T08:56:26;3.33;;;2.43;;
2474;SDS011;1248;48.694;10.160;2023-04-15T08:58:54;3.33;;;3.03;;
2474;SDS011;1248;48.694;10.160;2023-04-15T09:01:21;4.13;;;2.70;;
2474;SDS011;1248;48.694;10.160;2023-04-15T09:03:48;4.27;;;3.30;;
2474;SDS011;1248;48.694;10.160;2023-04-15T09:06:16;4.50;;;2.97;;
2474;SDS011;1248;48.694;10.160;2023-04-15T09:08:44;4.03;;;3.00;;
2474;SDS011;1248;48.694;10.160;2023-04-15T09:11:11;3.80;;;3.40;;
2474;SDS011;1248;48.694;10.160;2023-04-15T09:13:39;3.73;;;3.43;;
2474;SDS011;1248;48.694;10.160;2023-04-15T09:16:06;7.10;;;3.43;;
2474;SDS011;1248;48.694;10.160;2023-04-15T09:18:34;6.20;;;3.13;;
2474;SDS011;1248;48.694;10.160;2023-04-15T09:21:03;5.50;;;4.00;;
2474;SDS011;1248;48.694;10.160;2023-04-15T09:23:31;5.40;;;2.67;;
2474;SDS011;1248;48.694;10.160;2023-04-15T09:25:59;13.80;;;3.17;;
2474;SDS011;1248;48.694;10.160;2023-04-15T09:28:27;5.07;;;3.23;;
2474;SDS011;1248;48.694;10.160;2023-04-15T09:30:54;4.30;;;3.90;;
2474;SDS011;1248;48.694;10.160;2023-04-15T09:33:22;4.83;;;4.40;;
2474;SDS011;1248;48.694;10.160;2023-04-15T09:35:55;4.30;;;3.90;;
2474;SDS011;1248;48.694;10.160;2023-04-15T09:38:22;7.47;;;4.20;;
2474;SDS011;1248;48.694;10.160;2023-04-15T09:40:50;4.50;;;3.67;;
2474;SDS011;1248;48.694;10.160;2023-04-15T09:43:18;8.20;;;4.23;;
2474;SDS011;1248;48.694;10.160;2023-04-15T09:45:49;6.80;;;5.10;;
2474;SDS011;1248;48.694;10.160;2023-04-15T09:48:17;6.93;;;5.30;;
2474;SDS011;1248;48.694;10.160;2023-04-15T09:50:46;7.57;;;5.33;;
2474;SDS011;1248;48.694;10.160;2023-04-15T09:53:15;6.80;;;4.70;;
2474;SDS011;1248;48.694;10.160;2023-04-15T09:55:44;7.83;;;4.43;;
2474;SDS011;1248;48.694;10.160;2023-04-15T09:58:16;7.37;;;4.90;;
2474;SDS011;1248;48.694;10.160;2023-04-15T10:00:46;7.50;;;3.87;;
2474;SDS011;1248;48.694;10.160;2023-04-15T10:03:14;6.53;;;4.57;;
2474;SDS011;1248;48.694;10.160;2023-04-15T10:05:45;4.40;;;3.70;;
2474;SDS011;1248;48.694;10.160;2023-04-15T10:08:13;5.93;;;4.63;;
2474;SDS011;1248;48.694;10.160;2023-04-15T10:10:41;10.77;;;6.63;;
2474;SDS011;1248;48.694;10.160;2023-04-15T10:13:09;8.57;;;4.97;;
2474;SDS011;1248;48.694;10.160;2023-04-15T10:15:38;6.90;;;5.67;;
2474;SDS011;1248;48.694;10.160;2023-04-15T10:18:05;7.80;;;5.77;;
2474;SDS011;1248;48.694;10.160;2023-04-15T10:20:33;5.17;;;4.53;;
2474;SDS011;1248;48.694;10.160;2023-04-15T10:23:01;7.80;;;5.33;;
2474;SDS011;1248;48.694;10.160;2023-04-15T10:25:28;8.17;;;5.03;;
2474;SDS011;1248;48.694;10.160;2023-04-15T10:27:56;5.20;;;4.40;;
2474;SDS011;1248;48.694;10.160;2023-04-15T10:30:23;7.20;;;4.20;;
2474;SDS011;1248;48.694;10.160;2023-04-15T10:32:52;6.30;;;4.03;;
2474;SDS011;1248;48.694;10.160;2023-04-15T10:35:19;7.90;;;4.60;;
2474;SDS011;1248;48.694;10.160;2023-04-15T10:37:47;7.60;;;4.33;;
2474;SDS011;1248;48.694;10.160;2023-04-15T10:40:24;4.60;;;4.07;;
2474;SDS011;1248;48.694;10.160;2023-04-15T10:42:53;9.33;;;4.57;;
2474;SDS011;1248;48.694;10.160;2023-04-15T10:45:21;5.80;;;4.47;;
2474;SDS011;1248;48.694;10.160;2023-04-15T10:47:53;5.83;;;4.80;;
2474;SDS011;1248;48.694;10.160;2023-04-15T10:50:20;7.70;;;4.67;;
2474;SDS011;1248;48.694;10.160;2023-04-15T10:52:49;5.57;;;3.97;;
2474;SDS011;1248;48.694;10.160;2023-04-15T10:55:23;10.47;;;5.23;;
2474;SDS011;1248;48.694;10.160;2023-04-15T10:57:51;8.43;;;4.60;;
2474;SDS011;1248;48.694;10.160;2023-04-15T11:00:19;6.67;;;4.37;;
2474;SDS011;1248;48.694;10.160;2023-04-15T11:02:51;8.03;;;4.43;;
2474;SDS011;1248;48.694;10.160;2023-04-15T11:05:21;7.77;;;5.30;;
2474;SDS011;1248;48.694;10.160;2023-04-15T11:07:52;8.60;;;5.93;;
2474;SDS011;1248;48.694;10.160;2023-04-15T11:13:21;6.27;;;4.40;;
2474;SDS011;1248;48.694;10.160;2023-04-15T11:15:57;5.53;;;4.67;;
2474;SDS011;1248;48.694;10.160;2023-04-15T11:18:28;5.93;;;4.53;;
2474;SDS011;1248;48.694;10.160;2023-04-15T11:20:57;10.00;;;4.50;;
2474;SDS011;1248;48.694;10.160;2023-04-15T11:23:29;5.73;;;3.70;;
2474;SDS011;1248;48.694;10.160;2023-04-15T11:25:59;5.97;;;4.33;;
2474;SDS011;1248;48.694;10.160;2023-04-15T11:28:27;10.20;;;4.70;;
2474;SDS011;1248;48.694;10.160;2023-04-15T11:30:55;7.37;;;5.30;;
2474;SDS011;1248;48.694;10.160;2023-04-15T11:33:22;5.87;;;3.83;;
2474;SDS011;1248;48.694;10.160;2023-04-15T11:35:52;7.63;;;4.23;;
2474;SDS011;1248;48.694;10.160;2023-04-15T11:38:19;4.07;;;3.67;;
2474;SDS011;1248;48.694;10.160;2023-04-15T11:40:47;4.00;;;3.00;;
2474;SDS011;1248;48.694;10.160;2023-04-15T11:43:14;4.00;;;3.03;;
2474;SDS011;1248;48.694;10.160;2023-04-15T11:45:47;5.47;;;2.90;;
2474;SDS011;1248;48.694;10.160;2023-04-15T11:48:15;5.53;;;3.70;;
2474;SDS011;1248;48.694;10.160;2023-04-15T11:50:43;7.33;;;3.90;;
2474;SDS011;1248;48.694;10.160;2023-04-15T11:53:12;7.90;;;3.97;;
2474;SDS011;1248;48.694;10.160;2023-04-15T11:55:42;4.97;;;3.83;;
2474;SDS011;1248;48.694;10.160;2023-04-15T11:58:11;7.93;;;4.47;;
2474;SDS011;1248;48.694;10.160;2023-04-15T12:00:39;7.43;;;4.17;;
2474;SDS011;1248;48.694;10.160;2023-04-15T12:03:16;7.27;;;3.53;;
2474;SDS011;1248;48.694;10.160;2023-04-15T12:06:03;6.43;;;3.63;;
2474;SDS011;1248;48.694;10.160;2023-04-15T12:11:32;6.13;;;4.03;;
2474;SDS011;1248;48.694;10.160;2023-04-15T12:14:05;7.43;;;4.43;;
2474;SDS011;1248;48.694;10.160;2023-04-15T12:16:34;4.83;;;3.10;;
2474;SDS011;1248;48.694;10.160;2023-04-15T12:19:04;3.60;;;3.03;;
2474;SDS011;1248;48.694;10.160;2023-04-15T12:21:35;3.63;;;2.53;;
2474;SDS011;1248;48.694;10.160;2023-04-15T12:24:04;7.70;;;3.33;;
2474;SDS011;1248;48.694;10.160;2023-04-15T12:26:35;4.10;;;2.80;;
2474;SDS011;1248;48.694;10.160;2023-04-15T12:29:04;4.80;;;3.23;;
2474;SDS011;1248;48.694;10.160;2023-04-15T12:31:32;3.10;;;2.53;;
2474;SDS011;1248;48.694;10.160;2023-04-15T12:34:00;3.40;;;2.33;;
2474;SDS011;1248;48.694;10.160;2023-04-15T12:36:28;3.63;;;2.70;;
2474;SDS011;1248;48.694;10.160;2023-04-15T12:39:01;4.30;;;1.90;;
2474;SDS011;1248;48.694;10.160;2023-04-15T12:41:28;3.53;;;2.10;;
2474;SDS011;1248;48.694;10.160;2023-04-15T12:43:57;2.87;;;1.70;;
2474;SDS011;1248;48.694;10.160;2023-04-15T12:46:24;3.47;;;1.97;;
2474;SDS011;1248;48.694;10.160;2023-04-15T12:48:51;4.40;;;1.80;;
2474;SDS011;1248;48.694;10.160;2023-04-15T12:51:19;2.80;;;2.00;;
2474;SDS011;1248;48.694;10.160;2023-04-15T12:53:46;6.20;;;2.47;;
2474;SDS011;1248;48.694;10.160;2023-04-15T12:56:14;2.33;;;1.77;;
2474;SDS011;1248;48.694;10.160;2023-04-15T12:58:41;2.23;;;1.63;;
2474;SDS011;1248;48.694;10.160;2023-04-15T13:01:10;2.67;;;1.53;;
2474;SDS011;1248;48.694;10.160;2023-04-15T13:03:37;2.33;;;1.70;;
2474;SDS011;1248;48.694;10.160;2023-04-15T13:06:04;3.77;;;2.17;;
2474;SDS011;1248;48.694;10.160;2023-04-15T13:08:31;2.87;;;2.20;;
2474;SDS011;1248;48.694;10.160;2023-04-15T13:10:58;2.87;;;2.10;;
2474;SDS011;1248;48.694;10.160;2023-04-15T13:13:26;2.03;;;1.70;;
2474;SDS011;1248;48.694;10.160;2023-04-15T13:15:53;2.73;;;2.20;;
2474;SDS011;1248;48.694;10.160;2023-04-15T13:18:21;2.33;;;1.90;;
2474;SDS011;1248;48.694;10.160;2023-04-15T13:20:48;2.97;;;2.03;;
2474;SDS011;1248;48.694;10.160;2023-04-15T13:23:16;3.10;;;2.23;;
2474;SDS011;1248;48.694;10.160;2023-04-15T13:25:43;1.77;;;1.63;;
2474;SDS011;1248;48.694;10.160;2023-04-15T13:28:10;4.10;;;2.00;;
2474;SDS011;1248;48.694;10.160;2023-04-15T13:30:37;3.10;;;2.20;;
2474;SDS011;1248;48.694;10.160;2023-04-15T13:33:05;4.27;;;2.40;;
2474;SDS011;1248;48.694;10.160;2023-04-15T13:35:33;2.90;;;2.43;;
2474;SDS011;1248;48.694;10.160;2023-04-15T13:38:00;3.63;;;2.70;;
2474;SDS011;1248;48.694;10.160;2023-04-15T13:40:27;3.13;;;2.83;;
2474;SDS011;1248;48.694;10.160;2023-04-15T13:42:54;5.20;;;3.10;;
2474;SDS011;1248;48.694;10.160;2023-04-15T13:49:07;3.33;;;2.27;;
2474;SDS011;1248;48.694;10.160;2023-04-15T13:55:00;2.80;;;2.10;;
2474;SDS011;1248;48.694;10.160;2023-04-15T13:58:18;4.63;;;2.43;;
2474;SDS011;1248;48.694;10.160;2023-04-15T14:00:51;2.83;;;1.90;;
2474;SDS011;1248;48.694;10.160;2023-04-15T14:07:51;6.00;;;2.33;;
2474;SDS011;1248;48.694;10.160;2023-04-15T14:10:41;4.53;;;2.07;;
2474;SDS011;1248;48.694;10.160;2023-04-15T14:13:31;5.20;;;2.30;;
2474;SDS011;1248;48.694;10.160;2023-04-15T14:16:09;3.97;;;2.40;;
2474;SDS011;1248;48.694;10.160;2023-04-15T14:19:14;2.80;;;1.80;;
2474;SDS011;1248;48.694;10.160;2023-04-15T14:22:00;2.80;;;1.57;;
2474;SDS011;1248;48.694;10.160;2023-04-15T14:25:22;2.03;;;1.83;;
2474;SDS011;1248;48.694;10.160;2023-04-15T14:42:12;3.50;;;1.80;;
2474;SDS011;1248;48.694;10.160;2023-04-15T14:48:29;2.83;;;1.40;;
2474;SDS011;1248;48.694;10.160;2023-04-15T14:54:13;3.20;;;1.37;;
2474;SDS011;1248;48.694;10.160;2023-04-15T14:57:00;2.07;;;1.60;;
2474;SDS011;1248;48.694;10.160;2023-04-15T14:59:34;2.53;;;2.33;;
2474;SDS011;1248;48.694;10.160;2023-04-15T15:02:23;1.50;;;1.27;;
2474;SDS011;1248;48.694;10.160;2023-04-15T15:05:03;7.03;;;1.60;;
2474;SDS011;1248;48.694;10.160;2023-04-15T15:11:27;2.70;;;1.40;;
2474;SDS011;1248;48.694;10.160;2023-04-15T15:15:19;3.53;;;1.37;;
2474;SDS011;1248;48.694;10.160;2023-04-15T15:17:51;1.67;;;1.40;;
2474;SDS011;1248;48.694;10.160;2023-04-15T15:23:57;2.50;;;1.90;;
2474;SDS011;1248;48.694;10.160;2023-04-15T15:30:05;3.07;;;1.60;;
2474;SDS011;1248;48.694;10.160;2023-04-15T15:33:14;2.63;;;2.43;;
2474;SDS011;1248;48.694;10.160;2023-04-15T15:36:07;3.87;;;2.00;;
2474;SDS011;1248;48.694;10.160;2023-04-15T15:38:41;3.37;;;1.63;;
2474;SDS011;1248;48.694;10.160;2023-04-15T15:41:09;2.60;;;1.77;;
2474;SDS011;1248;48.694;10.160;2023-04-15T15:43:38;2.77;;;2.30;;
2474;SDS011;1248;48.694;10.160;2023-04-15T15:46:08;1.93;;;1.83;;
2474;SDS011;1248;48.694;10.160;2023-04-15T15:48:50;2.20;;;1.73;;
2474;SDS011;1248;48.694;10.160;2023-04-15T15:51:21;2.23;;;1.50;;
2474;SDS011;1248;48.694;10.160;2023-04-15T15:53:52;1.90;;;1.53;;
2474;SDS011;1248;48.694;10.160;2023-04-15T15:56:20;4.30;;;1.87;;
2474;SDS011;1248;48.694;10.160;2023-04-15T15:59:25;1.97;;;1.60;;
2474;SDS011;1248;48.694;10.160;2023-04-15T16:01:52;1.60;;;1.50;;
2474;SDS011;1248;48.694;10.160;2023-04-15T16:04:25;1.80;;;1.67;;